sensor_id;sensor_type;location;lat;lon;timestamp;P1;durP1;ratioP1;P2;durP2;ratioP2
77248;SDS011;66280;45.124;20.718;2023-07-24T00:01:22;12.13;;;10.17;;
77248;SDS011;66280;45.124;20.718;2023-07-24T00:11:23;9.40;;;8.40;;
77248;SDS011;66280;45.124;20.718;2023-07-24T00:21:24;7.63;;;6.93;;
77248;SDS011;66280;45.124;20.718;2023-07-24T00:31:24;10.13;;;9.10;;
77248;SDS011;66280;45.124;20.718;2023-07-24T00:41:25;11.63;;;10.52;;
77248;SDS011;66280;45.124;20.718;2023-07-24T00:51:28;13.97;;;12.60;;
77248;SDS011;66280;45.124;20.718;2023-07-24T01:01:29;16.83;;;15.15;;
77248;SDS011;66280;45.124;20.718;2023-07-24T01:11:33;15.37;;;13.83;;
77248;SDS011;66280;45.124;20.718;2023-07-24T01:21:38;17.93;;;16.07;;
77248;SDS011;66280;45.124;20.718;2023-07-24T01:31:46;17.42;;;15.25;;
77248;SDS011;66280;45.124;20.718;2023-07-24T01:41:47;16.70;;;14.27;;
77248;SDS011;66280;45.124;20.718;2023-07-24T01:51:48;16.07;;;13.97;;
77248;SDS011;66280;45.124;20.718;2023-07-24T02:01:49;17.00;;;14.48;;
77248;SDS011;66280;45.124;20.718;2023-07-24T02:11:49;18.23;;;14.47;;
77248;SDS011;66280;45.124;20.718;2023-07-24T02:21:50;19.20;;;15.90;;
77248;SDS011;66280;45.124;20.718;2023-07-24T02:31:50;18.25;;;15.95;;
77248;SDS011;66280;45.124;20.718;2023-07-24T02:41:51;18.90;;;15.63;;
77248;SDS011;66280;45.124;20.718;2023-07-24T02:51:52;21.27;;;16.17;;
77248;SDS011;66280;45.124;20.718;2023-07-24T03:01:52;18.23;;;15.52;;
77248;SDS011;66280;45.124;20.718;2023-07-24T03:11:53;23.27;;;16.63;;
77248;SDS011;66280;45.124;20.718;2023-07-24T03:21:54;18.70;;;14.47;;
77248;SDS011;66280;45.124;20.718;2023-07-24T03:31:55;18.80;;;15.33;;
77248;SDS011;66280;45.124;20.718;2023-07-24T03:41:55;20.13;;;14.97;;
77248;SDS011;66280;45.124;20.718;2023-07-24T03:51:56;21.63;;;15.27;;
77248;SDS011;66280;45.124;20.718;2023-07-24T04:01:57;17.25;;;12.65;;
77248;SDS011;66280;45.124;20.718;2023-07-24T04:11:58;18.33;;;12.75;;
77248;SDS011;66280;45.124;20.718;2023-07-24T04:21:58;16.77;;;11.00;;
77248;SDS011;66280;45.124;20.718;2023-07-24T04:31:59;15.93;;;10.77;;
77248;SDS011;66280;45.124;20.718;2023-07-24T04:42:00;17.52;;;12.70;;
77248;SDS011;66280;45.124;20.718;2023-07-24T04:52:00;14.87;;;12.10;;
77248;SDS011;66280;45.124;20.718;2023-07-24T05:02:01;14.93;;;12.60;;
77248;SDS011;66280;45.124;20.718;2023-07-24T05:12:02;18.90;;;13.43;;
77248;SDS011;66280;45.124;20.718;2023-07-24T05:22:02;19.13;;;13.40;;
77248;SDS011;66280;45.124;20.718;2023-07-24T05:32:03;18.40;;;15.60;;
77248;SDS011;66280;45.124;20.718;2023-07-24T05:42:04;18.50;;;14.10;;
77248;SDS011;66280;45.124;20.718;2023-07-24T05:52:05;19.63;;;15.57;;
77248;SDS011;66280;45.124;20.718;2023-07-24T06:02:06;21.23;;;14.87;;
77248;SDS011;66280;45.124;20.718;2023-07-24T06:12:07;26.27;;;17.57;;
77248;SDS011;66280;45.124;20.718;2023-07-24T06:22:07;24.77;;;16.80;;
77248;SDS011;66280;45.124;20.718;2023-07-24T06:32:08;21.70;;;17.93;;
77248;SDS011;66280;45.124;20.718;2023-07-24T06:42:09;21.47;;;19.27;;
77248;SDS011;66280;45.124;20.718;2023-07-24T06:52:09;22.43;;;19.50;;
77248;SDS011;66280;45.124;20.718;2023-07-24T07:02:10;20.77;;;18.63;;
77248;SDS011;66280;45.124;20.718;2023-07-24T07:12:11;22.17;;;19.87;;
77248;SDS011;66280;45.124;20.718;2023-07-24T07:22:11;22.50;;;20.30;;
77248;SDS011;66280;45.124;20.718;2023-07-24T07:32:12;23.77;;;21.23;;
77248;SDS011;66280;45.124;20.718;2023-07-24T07:42:13;23.93;;;21.53;;
77248;SDS011;66280;45.124;20.718;2023-07-24T07:52:13;23.55;;;20.33;;
77248;SDS011;66280;45.124;20.718;2023-07-24T08:02:14;23.20;;;20.90;;
77248;SDS011;66280;45.124;20.718;2023-07-24T08:12:15;24.20;;;21.90;;
77248;SDS011;66280;45.124;20.718;2023-07-24T08:22:15;23.47;;;21.10;;
77248;SDS011;66280;45.124;20.718;2023-07-24T08:32:16;20.70;;;17.17;;
77248;SDS011;66280;45.124;20.718;2023-07-24T08:42:16;21.23;;;19.02;;
77248;SDS011;66280;45.124;20.718;2023-07-24T08:52:17;20.35;;;18.23;;
77248;SDS011;66280;45.124;20.718;2023-07-24T09:02:17;20.10;;;17.83;;
77248;SDS011;66280;45.124;20.718;2023-07-24T09:12:18;18.20;;;16.30;;
77248;SDS011;66280;45.124;20.718;2023-07-24T09:22:19;19.43;;;16.83;;
77248;SDS011;66280;45.124;20.718;2023-07-24T11:32:40;18.50;;;14.00;;
77248;SDS011;66280;45.124;20.718;2023-07-24T11:42:42;17.70;;;13.32;;
77248;SDS011;66280;45.124;20.718;2023-07-24T11:52:47;15.70;;;12.73;;
77248;SDS011;66280;45.124;20.718;2023-07-24T12:02:48;18.20;;;13.17;;
77248;SDS011;66280;45.124;20.718;2023-07-24T12:12:50;20.52;;;14.13;;
77248;SDS011;66280;45.124;20.718;2023-07-24T12:22:51;19.80;;;14.40;;
77248;SDS011;66280;45.124;20.718;2023-07-24T12:32:51;20.67;;;13.45;;
77248;SDS011;66280;45.124;20.718;2023-07-24T12:42:52;18.90;;;13.33;;
77248;SDS011;66280;45.124;20.718;2023-07-24T12:52:52;17.38;;;13.02;;
77248;SDS011;66280;45.124;20.718;2023-07-24T13:02:53;17.33;;;12.93;;
77248;SDS011;66280;45.124;20.718;2023-07-24T13:12:53;17.48;;;13.35;;
77248;SDS011;66280;45.124;20.718;2023-07-24T13:22:54;18.75;;;13.80;;
77248;SDS011;66280;45.124;20.718;2023-07-24T13:32:55;17.05;;;12.77;;
77248;SDS011;66280;45.124;20.718;2023-07-24T13:42:55;15.30;;;12.30;;
77248;SDS011;66280;45.124;20.718;2023-07-24T13:52:56;17.80;;;13.57;;
77248;SDS011;66280;45.124;20.718;2023-07-24T14:02:57;16.93;;;12.90;;
77248;SDS011;66280;45.124;20.718;2023-07-24T14:12:57;18.23;;;13.47;;
77248;SDS011;66280;45.124;20.718;2023-07-24T14:22:58;16.60;;;13.60;;
77248;SDS011;66280;45.124;20.718;2023-07-24T14:32:58;19.53;;;13.60;;
77248;SDS011;66280;45.124;20.718;2023-07-24T14:42:59;16.70;;;12.73;;
77248;SDS011;66280;45.124;20.718;2023-07-24T14:53:00;18.60;;;12.07;;
77248;SDS011;66280;45.124;20.718;2023-07-24T15:33:02;19.25;;;13.18;;
77248;SDS011;66280;45.124;20.718;2023-07-24T19:53:15;18.40;;;11.20;;
77248;SDS011;66280;45.124;20.718;2023-07-24T20:03:17;18.02;;;11.63;;
77248;SDS011;66280;45.124;20.718;2023-07-24T20:13:18;15.97;;;10.53;;
77248;SDS011;66280;45.124;20.718;2023-07-24T20:23:19;16.63;;;11.50;;
77248;SDS011;66280;45.124;20.718;2023-07-24T20:33:20;19.20;;;11.40;;
77248;SDS011;66280;45.124;20.718;2023-07-24T20:43:20;19.03;;;11.23;;
77248;SDS011;66280;45.124;20.718;2023-07-24T20:53:21;17.70;;;11.23;;
77248;SDS011;66280;45.124;20.718;2023-07-24T21:03:21;20.95;;;11.52;;
77248;SDS011;66280;45.124;20.718;2023-07-24T21:13:22;15.73;;;10.40;;
77248;SDS011;66280;45.124;20.718;2023-07-24T21:23:23;19.77;;;11.17;;
77248;SDS011;66280;45.124;20.718;2023-07-24T21:33:23;16.47;;;10.87;;
77248;SDS011;66280;45.124;20.718;2023-07-24T21:43:24;19.50;;;12.73;;
77248;SDS011;66280;45.124;20.718;2023-07-24T21:53:25;18.30;;;12.60;;
77248;SDS011;66280;45.124;20.718;2023-07-24T22:03:26;19.25;;;11.45;;
77248;SDS011;66280;45.124;20.718;2023-07-24T22:13:26;19.50;;;11.30;;
77248;SDS011;66280;45.124;20.718;2023-07-24T22:23:27;17.30;;;11.87;;
77248;SDS011;66280;45.124;20.718;2023-07-24T22:33:27;16.33;;;10.47;;
77248;SDS011;66280;45.124;20.718;2023-07-24T22:43:29;18.75;;;11.10;;
77248;SDS011;66280;45.124;20.718;2023-07-24T22:53:29;15.60;;;11.15;;
77248;SDS011;66280;45.124;20.718;2023-07-24T23:03:30;18.92;;;12.02;;
77248;SDS011;66280;45.124;20.718;2023-07-24T23:13:31;19.23;;;12.37;;
77248;SDS011;66280;45.124;20.718;2023-07-24T23:23:31;15.93;;;10.90;;
77248;SDS011;66280;45.124;20.718;2023-07-24T23:33:32;20.00;;;11.20;;
77248;SDS011;66280;45.124;20.718;2023-07-24T23:43:33;18.57;;;12.80;;
77248;SDS011;66280;45.124;20.718;2023-07-24T23:53:34;18.33;;;11.60;;
